sensor_id;sensor_type;location;lat;lon;timestamp;P1;durP1;ratioP1;P2;durP2;ratioP2
14001;SDS011;7076;51.280;12.584;2024-03-02T00:02:10;24.95;;;13.77;;
14001;SDS011;7076;51.280;12.584;2024-03-02T00:07:13;25.42;;;15.35;;
14001;SDS011;7076;51.280;12.584;2024-03-02T00:12:16;29.10;;;15.23;;
14001;SDS011;7076;51.280;12.584;2024-03-02T00:17:24;28.50;;;15.20;;
14001;SDS011;7076;51.280;12.584;2024-03-02T00:22:27;28.92;;;15.32;;
14001;SDS011;7076;51.280;12.584;2024-03-02T00:27:30;23.65;;;13.82;;
14001;SDS011;7076;51.280;12.584;2024-03-02T00:32:34;24.52;;;14.15;;
14001;SDS011;7076;51.280;12.584;2024-03-02T00:37:37;26.35;;;14.88;;
14001;SDS011;7076;51.280;12.584;2024-03-02T00:42:40;21.75;;;13.80;;
14001;SDS011;7076;51.280;12.584;2024-03-02T00:47:44;21.43;;;13.73;;
14001;SDS011;7076;51.280;12.584;2024-03-02T00:52:47;25.42;;;14.32;;
14001;SDS011;7076;51.280;12.584;2024-03-02T00:57:50;23.33;;;13.10;;
14001;SDS011;7076;51.280;12.584;2024-03-02T01:02:54;22.55;;;13.40;;
14001;SDS011;7076;51.280;12.584;2024-03-02T01:07:57;21.60;;;12.95;;
14001;SDS011;7076;51.280;12.584;2024-03-02T01:13:00;19.40;;;12.47;;
14001;SDS011;7076;51.280;12.584;2024-03-02T01:18:04;23.08;;;12.75;;
14001;SDS011;7076;51.280;12.584;2024-03-02T01:23:07;20.83;;;12.90;;
14001;SDS011;7076;51.280;12.584;2024-03-02T01:28:10;23.83;;;12.57;;
14001;SDS011;7076;51.280;12.584;2024-03-02T01:33:14;21.52;;;11.43;;
14001;SDS011;7076;51.280;12.584;2024-03-02T01:38:17;20.98;;;12.07;;
14001;SDS011;7076;51.280;12.584;2024-03-02T01:43:20;21.30;;;11.95;;
14001;SDS011;7076;51.280;12.584;2024-03-02T01:48:25;19.40;;;11.65;;
14001;SDS011;7076;51.280;12.584;2024-03-02T01:53:28;21.50;;;12.00;;
14001;SDS011;7076;51.280;12.584;2024-03-02T01:58:31;20.38;;;11.65;;
14001;SDS011;7076;51.280;12.584;2024-03-02T02:03:35;16.92;;;11.52;;
14001;SDS011;7076;51.280;12.584;2024-03-02T02:08:38;21.77;;;12.23;;
14001;SDS011;7076;51.280;12.584;2024-03-02T02:13:41;19.80;;;12.27;;
14001;SDS011;7076;51.280;12.584;2024-03-02T02:18:45;21.38;;;12.00;;
14001;SDS011;7076;51.280;12.584;2024-03-02T02:23:50;17.27;;;10.27;;
14001;SDS011;7076;51.280;12.584;2024-03-02T02:28:52;17.30;;;11.15;;
14001;SDS011;7076;51.280;12.584;2024-03-02T02:33:55;19.92;;;11.90;;
14001;SDS011;7076;51.280;12.584;2024-03-02T02:39:00;18.48;;;11.35;;
14001;SDS011;7076;51.280;12.584;2024-03-02T02:44:05;23.83;;;10.32;;
14001;SDS011;7076;51.280;12.584;2024-03-02T02:49:08;17.55;;;11.10;;
14001;SDS011;7076;51.280;12.584;2024-03-02T02:54:13;18.48;;;10.55;;
14001;SDS011;7076;51.280;12.584;2024-03-02T02:59:16;16.65;;;10.45;;
14001;SDS011;7076;51.280;12.584;2024-03-02T03:04:18;18.67;;;10.60;;
14001;SDS011;7076;51.280;12.584;2024-03-02T03:09:23;18.30;;;10.30;;
14001;SDS011;7076;51.280;12.584;2024-03-02T03:14:25;18.58;;;10.75;;
14001;SDS011;7076;51.280;12.584;2024-03-02T03:19:28;18.60;;;10.63;;
14001;SDS011;7076;51.280;12.584;2024-03-02T03:24:33;16.85;;;10.98;;
14001;SDS011;7076;51.280;12.584;2024-03-02T03:29:36;16.77;;;10.13;;
14001;SDS011;7076;51.280;12.584;2024-03-02T03:34:39;17.00;;;10.65;;
14001;SDS011;7076;51.280;12.584;2024-03-02T03:39:44;18.20;;;10.88;;
14001;SDS011;7076;51.280;12.584;2024-03-02T03:44:47;22.02;;;11.80;;
14001;SDS011;7076;51.280;12.584;2024-03-02T03:49:49;21.17;;;11.57;;
14001;SDS011;7076;51.280;12.584;2024-03-02T03:54:54;21.42;;;10.73;;
14001;SDS011;7076;51.280;12.584;2024-03-02T03:59:56;21.90;;;10.88;;
14001;SDS011;7076;51.280;12.584;2024-03-02T04:05:00;18.08;;;11.02;;
14001;SDS011;7076;51.280;12.584;2024-03-02T04:10:08;24.20;;;11.63;;
14001;SDS011;7076;51.280;12.584;2024-03-02T04:15:11;21.77;;;12.48;;
14001;SDS011;7076;51.280;12.584;2024-03-02T04:20:14;17.67;;;10.52;;
14001;SDS011;7076;51.280;12.584;2024-03-02T04:25:18;19.40;;;12.20;;
14001;SDS011;7076;51.280;12.584;2024-03-02T04:30:21;18.38;;;11.40;;
14001;SDS011;7076;51.280;12.584;2024-03-02T04:35:24;24.45;;;12.57;;
14001;SDS011;7076;51.280;12.584;2024-03-02T04:47:03;21.45;;;11.98;;
14001;SDS011;7076;51.280;12.584;2024-03-02T04:52:06;24.15;;;11.20;;
14001;SDS011;7076;51.280;12.584;2024-03-02T04:57:09;23.75;;;12.95;;
14001;SDS011;7076;51.280;12.584;2024-03-02T05:02:13;24.15;;;13.02;;
14001;SDS011;7076;51.280;12.584;2024-03-02T05:07:16;20.85;;;11.93;;
14001;SDS011;7076;51.280;12.584;2024-03-02T05:12:19;23.60;;;12.63;;
14001;SDS011;7076;51.280;12.584;2024-03-02T05:17:37;20.98;;;11.75;;
14001;SDS011;7076;51.280;12.584;2024-03-02T05:22:40;19.92;;;11.85;;
14001;SDS011;7076;51.280;12.584;2024-03-02T05:27:43;24.13;;;13.48;;
14001;SDS011;7076;51.280;12.584;2024-03-02T05:32:47;21.63;;;12.48;;
14001;SDS011;7076;51.280;12.584;2024-03-02T05:37:50;21.67;;;12.98;;
14001;SDS011;7076;51.280;12.584;2024-03-02T05:42:52;23.58;;;12.57;;
14001;SDS011;7076;51.280;12.584;2024-03-02T05:47:57;24.98;;;12.93;;
14001;SDS011;7076;51.280;12.584;2024-03-02T05:52:59;27.83;;;13.02;;
14001;SDS011;7076;51.280;12.584;2024-03-02T05:58:02;21.38;;;11.40;;
14001;SDS011;7076;51.280;12.584;2024-03-02T06:03:20;21.80;;;11.75;;
14001;SDS011;7076;51.280;12.584;2024-03-02T06:08:23;24.10;;;13.15;;
14001;SDS011;7076;51.280;12.584;2024-03-02T06:13:26;22.08;;;12.00;;
14001;SDS011;7076;51.280;12.584;2024-03-02T06:18:30;23.50;;;12.48;;
14001;SDS011;7076;51.280;12.584;2024-03-02T06:23:33;22.42;;;12.30;;
14001;SDS011;7076;51.280;12.584;2024-03-02T06:28:36;18.02;;;11.20;;
14001;SDS011;7076;51.280;12.584;2024-03-02T06:33:40;20.13;;;12.63;;
14001;SDS011;7076;51.280;12.584;2024-03-02T06:38:43;21.45;;;11.32;;
14001;SDS011;7076;51.280;12.584;2024-03-02T06:43:46;19.23;;;11.00;;
14001;SDS011;7076;51.280;12.584;2024-03-02T06:48:50;23.60;;;12.52;;
14001;SDS011;7076;51.280;12.584;2024-03-02T06:53:53;18.92;;;11.82;;
14001;SDS011;7076;51.280;12.584;2024-03-02T06:58:56;22.98;;;12.75;;
14001;SDS011;7076;51.280;12.584;2024-03-02T07:04:00;22.98;;;11.57;;
14001;SDS011;7076;51.280;12.584;2024-03-02T07:09:03;19.77;;;11.68;;
14001;SDS011;7076;51.280;12.584;2024-03-02T07:14:06;20.48;;;11.75;;
14001;SDS011;7076;51.280;12.584;2024-03-02T07:19:10;31.17;;;18.15;;
14001;SDS011;7076;51.280;12.584;2024-03-02T07:24:13;18.98;;;12.15;;
14001;SDS011;7076;51.280;12.584;2024-03-02T07:29:17;22.73;;;11.80;;
14001;SDS011;7076;51.280;12.584;2024-03-02T07:34:22;22.90;;;12.80;;
14001;SDS011;7076;51.280;12.584;2024-03-02T07:39:25;21.77;;;12.98;;
14001;SDS011;7076;51.280;12.584;2024-03-02T07:44:28;22.30;;;13.27;;
14001;SDS011;7076;51.280;12.584;2024-03-02T07:49:32;21.30;;;12.75;;
14001;SDS011;7076;51.280;12.584;2024-03-02T07:54:36;25.27;;;13.20;;
14001;SDS011;7076;51.280;12.584;2024-03-02T07:59:38;23.23;;;12.57;;
14001;SDS011;7076;51.280;12.584;2024-03-02T08:04:43;20.30;;;12.80;;
14001;SDS011;7076;51.280;12.584;2024-03-02T08:09:47;22.17;;;12.75;;
14001;SDS011;7076;51.280;12.584;2024-03-02T08:14:50;20.27;;;11.48;;
14001;SDS011;7076;51.280;12.584;2024-03-02T08:19:54;25.90;;;12.18;;
14001;SDS011;7076;51.280;12.584;2024-03-02T08:24:57;19.77;;;12.20;;
14001;SDS011;7076;51.280;12.584;2024-03-02T08:30:00;22.67;;;12.93;;
14001;SDS011;7076;51.280;12.584;2024-03-02T08:35:13;21.20;;;12.98;;
14001;SDS011;7076;51.280;12.584;2024-03-02T08:40:15;23.88;;;13.27;;
14001;SDS011;7076;51.280;12.584;2024-03-02T08:45:19;23.65;;;14.15;;
14001;SDS011;7076;51.280;12.584;2024-03-02T08:50:24;23.48;;;12.40;;
14001;SDS011;7076;51.280;12.584;2024-03-02T08:55:26;22.70;;;12.27;;
14001;SDS011;7076;51.280;12.584;2024-03-02T09:00:30;20.48;;;12.48;;
14001;SDS011;7076;51.280;12.584;2024-03-02T09:05:34;20.95;;;12.27;;
14001;SDS011;7076;51.280;12.584;2024-03-02T09:10:37;23.40;;;12.32;;
14001;SDS011;7076;51.280;12.584;2024-03-02T09:15:41;19.30;;;12.60;;
14001;SDS011;7076;51.280;12.584;2024-03-02T09:20:45;20.58;;;12.00;;
14001;SDS011;7076;51.280;12.584;2024-03-02T09:25:48;20.75;;;11.38;;
14001;SDS011;7076;51.280;12.584;2024-03-02T09:30:51;18.67;;;10.88;;
14001;SDS011;7076;51.280;12.584;2024-03-02T09:35:58;18.90;;;10.77;;
14001;SDS011;7076;51.280;12.584;2024-03-02T09:41:00;18.45;;;11.35;;
14001;SDS011;7076;51.280;12.584;2024-03-02T09:46:04;18.20;;;9.63;;
14001;SDS011;7076;51.280;12.584;2024-03-02T09:51:09;16.75;;;9.65;;
14001;SDS011;7076;51.280;12.584;2024-03-02T09:56:13;14.07;;;8.43;;
14001;SDS011;7076;51.280;12.584;2024-03-02T10:01:17;14.93;;;9.52;;
14001;SDS011;7076;51.280;12.584;2024-03-02T10:06:22;16.70;;;9.50;;
14001;SDS011;7076;51.280;12.584;2024-03-02T10:11:26;14.05;;;8.70;;
14001;SDS011;7076;51.280;12.584;2024-03-02T10:16:30;14.75;;;8.88;;
14001;SDS011;7076;51.280;12.584;2024-03-02T10:21:34;12.48;;;8.23;;
14001;SDS011;7076;51.280;12.584;2024-03-02T10:26:37;11.32;;;7.10;;
14001;SDS011;7076;51.280;12.584;2024-03-02T10:31:41;11.90;;;8.07;;
14001;SDS011;7076;51.280;12.584;2024-03-02T10:36:46;11.27;;;7.70;;
14001;SDS011;7076;51.280;12.584;2024-03-02T10:41:48;13.75;;;8.75;;
14001;SDS011;7076;51.280;12.584;2024-03-02T10:46:52;11.32;;;7.18;;
14001;SDS011;7076;51.280;12.584;2024-03-02T10:51:57;10.35;;;6.72;;
14001;SDS011;7076;51.280;12.584;2024-03-02T10:57:00;13.52;;;6.95;;
14001;SDS011;7076;51.280;12.584;2024-03-02T11:02:03;13.43;;;7.55;;
14001;SDS011;7076;51.280;12.584;2024-03-02T11:07:10;10.77;;;6.57;;
14001;SDS011;7076;51.280;12.584;2024-03-02T11:12:13;10.95;;;6.53;;
14001;SDS011;7076;51.280;12.584;2024-03-02T11:17:20;9.68;;;6.40;;
14001;SDS011;7076;51.280;12.584;2024-03-02T11:22:25;10.35;;;6.68;;
14001;SDS011;7076;51.280;12.584;2024-03-02T11:33:03;11.00;;;6.50;;
14001;SDS011;7076;51.280;12.584;2024-03-02T11:38:11;11.80;;;6.85;;
14001;SDS011;7076;51.280;12.584;2024-03-02T11:43:13;8.95;;;6.43;;
14001;SDS011;7076;51.280;12.584;2024-03-02T11:48:16;11.52;;;7.10;;
14001;SDS011;7076;51.280;12.584;2024-03-02T11:53:20;11.10;;;7.22;;
14001;SDS011;7076;51.280;12.584;2024-03-02T11:58:23;9.73;;;6.28;;
14001;SDS011;7076;51.280;12.584;2024-03-02T12:03:28;9.70;;;6.50;;
14001;SDS011;7076;51.280;12.584;2024-03-02T12:08:32;6.82;;;5.97;;
14001;SDS011;7076;51.280;12.584;2024-03-02T12:13:35;9.13;;;6.35;;
14001;SDS011;7076;51.280;12.584;2024-03-02T12:18:38;7.03;;;6.13;;
14001;SDS011;7076;51.280;12.584;2024-03-02T12:23:43;7.85;;;6.13;;
14001;SDS011;7076;51.280;12.584;2024-03-02T12:28:46;8.20;;;5.78;;
14001;SDS011;7076;51.280;12.584;2024-03-02T12:33:49;8.93;;;6.50;;
14001;SDS011;7076;51.280;12.584;2024-03-02T12:38:53;6.45;;;5.50;;
14001;SDS011;7076;51.280;12.584;2024-03-02T12:43:57;5.07;;;4.57;;
14001;SDS011;7076;51.280;12.584;2024-03-02T12:49:05;5.85;;;4.78;;
14001;SDS011;7076;51.280;12.584;2024-03-02T12:54:11;5.80;;;4.95;;
14001;SDS011;7076;51.280;12.584;2024-03-02T12:59:17;5.90;;;5.30;;
14001;SDS011;7076;51.280;12.584;2024-03-02T13:04:24;7.25;;;4.80;;
14001;SDS011;7076;51.280;12.584;2024-03-02T13:09:28;4.85;;;4.35;;
14001;SDS011;7076;51.280;12.584;2024-03-02T13:14:32;4.82;;;3.95;;
14001;SDS011;7076;51.280;12.584;2024-03-02T13:19:35;5.60;;;4.63;;
14001;SDS011;7076;51.280;12.584;2024-03-02T13:24:39;5.78;;;4.05;;
14001;SDS011;7076;51.280;12.584;2024-03-02T13:29:43;4.50;;;3.72;;
14001;SDS011;7076;51.280;12.584;2024-03-02T13:34:46;4.38;;;3.97;;
14001;SDS011;7076;51.280;12.584;2024-03-02T13:39:50;10.25;;;8.65;;
14001;SDS011;7076;51.280;12.584;2024-03-02T13:44:53;4.50;;;3.88;;
14001;SDS011;7076;51.280;12.584;2024-03-02T13:49:56;4.47;;;3.78;;
14001;SDS011;7076;51.280;12.584;2024-03-02T13:55:00;4.18;;;3.55;;
14001;SDS011;7076;51.280;12.584;2024-03-02T14:00:04;4.80;;;3.72;;
14001;SDS011;7076;51.280;12.584;2024-03-02T14:05:14;4.63;;;3.53;;
14001;SDS011;7076;51.280;12.584;2024-03-02T14:10:19;3.70;;;3.20;;
14001;SDS011;7076;51.280;12.584;2024-03-02T14:15:25;5.10;;;3.90;;
14001;SDS011;7076;51.280;12.584;2024-03-02T14:20:28;4.97;;;3.67;;
14001;SDS011;7076;51.280;12.584;2024-03-02T14:25:32;10.27;;;5.13;;
14001;SDS011;7076;51.280;12.584;2024-03-02T14:30:35;4.63;;;3.85;;
14001;SDS011;7076;51.280;12.584;2024-03-02T14:35:38;6.43;;;3.80;;
14001;SDS011;7076;51.280;12.584;2024-03-02T14:40:44;4.50;;;3.35;;
14001;SDS011;7076;51.280;12.584;2024-03-02T14:45:47;4.25;;;3.20;;
14001;SDS011;7076;51.280;12.584;2024-03-02T14:50:50;9.10;;;5.28;;
14001;SDS011;7076;51.280;12.584;2024-03-02T14:55:54;4.13;;;2.92;;
14001;SDS011;7076;51.280;12.584;2024-03-02T15:00:57;3.78;;;3.28;;
14001;SDS011;7076;51.280;12.584;2024-03-02T15:06:01;4.60;;;2.88;;
14001;SDS011;7076;51.280;12.584;2024-03-02T15:11:06;9.05;;;5.85;;
14001;SDS011;7076;51.280;12.584;2024-03-02T15:16:09;6.75;;;4.32;;
14001;SDS011;7076;51.280;12.584;2024-03-02T15:21:12;6.30;;;3.97;;
14001;SDS011;7076;51.280;12.584;2024-03-02T15:26:16;5.40;;;3.83;;
14001;SDS011;7076;51.280;12.584;2024-03-02T15:31:19;6.45;;;3.97;;
14001;SDS011;7076;51.280;12.584;2024-03-02T15:36:22;6.97;;;3.60;;
14001;SDS011;7076;51.280;12.584;2024-03-02T15:41:27;4.95;;;3.28;;
14001;SDS011;7076;51.280;12.584;2024-03-02T15:46:29;7.65;;;3.70;;
14001;SDS011;7076;51.280;12.584;2024-03-02T15:51:32;6.57;;;4.43;;
14001;SDS011;7076;51.280;12.584;2024-03-02T15:56:39;10.98;;;5.07;;
14001;SDS011;7076;51.280;12.584;2024-03-02T16:01:42;8.65;;;4.60;;
14001;SDS011;7076;51.280;12.584;2024-03-02T16:06:45;6.50;;;5.00;;
14001;SDS011;7076;51.280;12.584;2024-03-02T16:11:49;6.07;;;4.93;;
14001;SDS011;7076;51.280;12.584;2024-03-02T16:16:52;6.60;;;4.75;;
14001;SDS011;7076;51.280;12.584;2024-03-02T16:21:55;6.57;;;5.18;;
14001;SDS011;7076;51.280;12.584;2024-03-02T16:27:00;8.25;;;4.90;;
14001;SDS011;7076;51.280;12.584;2024-03-02T16:32:03;11.93;;;7.70;;
14001;SDS011;7076;51.280;12.584;2024-03-02T16:37:06;8.55;;;6.63;;
14001;SDS011;7076;51.280;12.584;2024-03-02T16:42:11;10.15;;;6.68;;
14001;SDS011;7076;51.280;12.584;2024-03-02T16:47:14;32.58;;;24.02;;
14001;SDS011;7076;51.280;12.584;2024-03-02T16:52:17;63.90;;;40.53;;
14001;SDS011;7076;51.280;12.584;2024-03-02T16:57:21;47.97;;;34.47;;
14001;SDS011;7076;51.280;12.584;2024-03-02T17:02:24;21.10;;;15.73;;
14001;SDS011;7076;51.280;12.584;2024-03-02T17:07:27;27.58;;;18.85;;
14001;SDS011;7076;51.280;12.584;2024-03-02T17:12:33;26.38;;;21.35;;
14001;SDS011;7076;51.280;12.584;2024-03-02T17:17:36;26.85;;;17.15;;
14001;SDS011;7076;51.280;12.584;2024-03-02T17:22:39;27.77;;;19.25;;
14001;SDS011;7076;51.280;12.584;2024-03-02T17:27:43;28.13;;;19.02;;
14001;SDS011;7076;51.280;12.584;2024-03-02T17:32:46;43.58;;;25.90;;
14001;SDS011;7076;51.280;12.584;2024-03-02T17:37:49;72.75;;;46.25;;
14001;SDS011;7076;51.280;12.584;2024-03-02T17:42:55;62.17;;;39.47;;
14001;SDS011;7076;51.280;12.584;2024-03-02T17:47:57;28.20;;;17.05;;
14001;SDS011;7076;51.280;12.584;2024-03-02T17:53:00;53.58;;;30.60;;
14001;SDS011;7076;51.280;12.584;2024-03-02T17:58:05;25.08;;;16.48;;
14001;SDS011;7076;51.280;12.584;2024-03-02T18:03:08;25.45;;;15.18;;
14001;SDS011;7076;51.280;12.584;2024-03-02T18:08:11;24.25;;;16.60;;
14001;SDS011;7076;51.280;12.584;2024-03-02T18:13:15;27.25;;;18.00;;
14001;SDS011;7076;51.280;12.584;2024-03-02T18:18:18;27.00;;;17.05;;
14001;SDS011;7076;51.280;12.584;2024-03-02T18:23:21;29.80;;;17.63;;
14001;SDS011;7076;51.280;12.584;2024-03-02T18:28:25;25.27;;;15.55;;
14001;SDS011;7076;51.280;12.584;2024-03-02T18:33:28;26.95;;;15.75;;
14001;SDS011;7076;51.280;12.584;2024-03-02T18:38:31;22.92;;;14.52;;
14001;SDS011;7076;51.280;12.584;2024-03-02T18:43:36;24.25;;;16.10;;
14001;SDS011;7076;51.280;12.584;2024-03-02T18:48:38;27.83;;;16.92;;
14001;SDS011;7076;51.280;12.584;2024-03-02T18:53:41;23.95;;;15.13;;
14001;SDS011;7076;51.280;12.584;2024-03-02T18:58:47;28.27;;;16.30;;
14001;SDS011;7076;51.280;12.584;2024-03-02T19:03:50;30.80;;;17.30;;
14001;SDS011;7076;51.280;12.584;2024-03-02T19:08:53;27.17;;;17.52;;
14001;SDS011;7076;51.280;12.584;2024-03-02T19:13:57;23.83;;;16.45;;
14001;SDS011;7076;51.280;12.584;2024-03-02T19:19:00;29.17;;;16.40;;
14001;SDS011;7076;51.280;12.584;2024-03-02T19:24:04;29.83;;;15.38;;
14001;SDS011;7076;51.280;12.584;2024-03-02T19:29:08;27.15;;;16.35;;
14001;SDS011;7076;51.280;12.584;2024-03-02T19:34:12;29.15;;;17.42;;
14001;SDS011;7076;51.280;12.584;2024-03-02T19:39:16;28.15;;;16.08;;
14001;SDS011;7076;51.280;12.584;2024-03-02T19:44:25;28.05;;;17.42;;
14001;SDS011;7076;51.280;12.584;2024-03-02T19:49:32;28.60;;;17.38;;
14001;SDS011;7076;51.280;12.584;2024-03-02T19:54:36;30.10;;;17.92;;
14001;SDS011;7076;51.280;12.584;2024-03-02T19:59:40;27.25;;;16.88;;
14001;SDS011;7076;51.280;12.584;2024-03-02T20:04:43;26.48;;;16.17;;
14001;SDS011;7076;51.280;12.584;2024-03-02T20:09:46;25.15;;;17.00;;
14001;SDS011;7076;51.280;12.584;2024-03-02T20:14:51;26.95;;;17.80;;
14001;SDS011;7076;51.280;12.584;2024-03-02T20:19:54;26.40;;;16.55;;
14001;SDS011;7076;51.280;12.584;2024-03-02T20:24:57;34.38;;;17.90;;
14001;SDS011;7076;51.280;12.584;2024-03-02T20:30:01;29.17;;;18.70;;
14001;SDS011;7076;51.280;12.584;2024-03-02T20:35:08;31.48;;;18.35;;
14001;SDS011;7076;51.280;12.584;2024-03-02T20:40:11;31.83;;;18.77;;
14001;SDS011;7076;51.280;12.584;2024-03-02T20:45:21;31.00;;;19.23;;
14001;SDS011;7076;51.280;12.584;2024-03-02T20:50:24;34.38;;;19.90;;
14001;SDS011;7076;51.280;12.584;2024-03-02T20:55:26;30.25;;;19.15;;
14001;SDS011;7076;51.280;12.584;2024-03-02T21:00:31;27.02;;;16.75;;
14001;SDS011;7076;51.280;12.584;2024-03-02T21:05:34;27.17;;;17.15;;
14001;SDS011;7076;51.280;12.584;2024-03-02T21:10:37;23.95;;;15.68;;
14001;SDS011;7076;51.280;12.584;2024-03-02T21:15:41;25.42;;;16.15;;
14001;SDS011;7076;51.280;12.584;2024-03-02T21:20:45;26.08;;;16.38;;
14001;SDS011;7076;51.280;12.584;2024-03-02T21:25:48;30.20;;;17.67;;
14001;SDS011;7076;51.280;12.584;2024-03-02T21:30:52;31.40;;;18.60;;
14001;SDS011;7076;51.280;12.584;2024-03-02T21:35:55;28.67;;;17.02;;
14001;SDS011;7076;51.280;12.584;2024-03-02T21:40:59;31.90;;;16.38;;
14001;SDS011;7076;51.280;12.584;2024-03-02T21:46:03;25.00;;;15.50;;
14001;SDS011;7076;51.280;12.584;2024-03-02T21:51:06;27.92;;;14.80;;
14001;SDS011;7076;51.280;12.584;2024-03-02T21:56:09;26.15;;;15.13;;
14001;SDS011;7076;51.280;12.584;2024-03-02T22:01:14;24.88;;;14.95;;
14001;SDS011;7076;51.280;12.584;2024-03-02T22:06:17;24.35;;;13.85;;
14001;SDS011;7076;51.280;12.584;2024-03-02T22:11:20;20.27;;;13.40;;
14001;SDS011;7076;51.280;12.584;2024-03-02T22:16:24;27.25;;;13.85;;
14001;SDS011;7076;51.280;12.584;2024-03-02T22:21:28;22.60;;;13.07;;
14001;SDS011;7076;51.280;12.584;2024-03-02T22:26:30;20.35;;;14.00;;
14001;SDS011;7076;51.280;12.584;2024-03-02T22:31:35;24.75;;;13.73;;
14001;SDS011;7076;51.280;12.584;2024-03-02T22:36:37;23.45;;;13.55;;
14001;SDS011;7076;51.280;12.584;2024-03-02T22:41:40;23.83;;;15.32;;
14001;SDS011;7076;51.280;12.584;2024-03-02T22:46:44;27.08;;;16.35;;
14001;SDS011;7076;51.280;12.584;2024-03-02T22:51:47;20.65;;;13.70;;
14001;SDS011;7076;51.280;12.584;2024-03-02T22:56:50;27.13;;;15.50;;
14001;SDS011;7076;51.280;12.584;2024-03-02T23:01:54;25.33;;;13.93;;
14001;SDS011;7076;51.280;12.584;2024-03-02T23:06:57;27.60;;;16.65;;
14001;SDS011;7076;51.280;12.584;2024-03-02T23:12:00;27.80;;;17.73;;
14001;SDS011;7076;51.280;12.584;2024-03-02T23:17:04;27.25;;;16.00;;
14001;SDS011;7076;51.280;12.584;2024-03-02T23:22:07;24.80;;;15.95;;
14001;SDS011;7076;51.280;12.584;2024-03-02T23:27:11;24.35;;;15.30;;
14001;SDS011;7076;51.280;12.584;2024-03-02T23:32:15;25.33;;;15.18;;
14001;SDS011;7076;51.280;12.584;2024-03-02T23:37:19;21.77;;;14.02;;
14001;SDS011;7076;51.280;12.584;2024-03-02T23:42:21;18.95;;;14.23;;
14001;SDS011;7076;51.280;12.584;2024-03-02T23:47:26;25.60;;;15.65;;
14001;SDS011;7076;51.280;12.584;2024-03-02T23:52:28;28.35;;;15.40;;
14001;SDS011;7076;51.280;12.584;2024-03-02T23:57:31;21.52;;;14.77;;
